Time;durP1;ratioP1;P1;durP2;ratioP2;P2;SDS_P1;SDS_P2;PMS_P1;PMS_P2;Temp;Humidity;BMP_temperature;BMP_pressure;BME280_temperature;BME280_humidity;BME280_pressure;Samples;Min_cycle;Max_cycle;Signal;HPM_P1;HPM_P2
2023/12/22 00:01:06;;;;;;;5.30;0.52;;;5.60;99.90;;;;;;5047735;28;20511;-66
2023/12/22 00:03:32;;;;;;;4.68;0.65;;;5.30;99.90;;;;;;5051273;28;20028;-66
2023/12/22 00:05:58;;;;;;;3.28;0.60;;;5.20;99.90;;;;;;5051263;28;20039;-65
2023/12/22 00:08:23;;;;;;;1.83;0.50;;;5.10;99.90;;;;;;5050761;28;20390;-67
2023/12/22 00:10:49;;;;;;;2.95;0.47;;;5.00;99.90;;;;;;5048303;28;20092;-66
2023/12/22 00:13:15;;;;;;;3.83;0.60;;;4.90;99.90;;;;;;5058897;28;20042;-65
2023/12/22 00:15:42;;;;;;;4.22;0.60;;;4.90;99.90;;;;;;5042151;28;20063;-66
2023/12/22 00:18:08;;;;;;;5.93;1.15;;;4.90;99.90;;;;;;5057342;28;20021;-66
2023/12/22 00:20:33;;;;;;;2.90;0.82;;;4.90;99.90;;;;;;5044480;28;20467;-66
2023/12/22 00:22:59;;;;;;;7.88;1.17;;;5.00;99.90;;;;;;5057646;28;20495;-66
2023/12/22 00:25:24;;;;;;;3.92;1.10;;;5.00;99.90;;;;;;5052903;28;20391;-66
2023/12/22 00:27:50;;;;;;;13.00;1.33;;;5.10;99.90;;;;;;5047961;28;20025;-66
2023/12/22 00:30:15;;;;;;;7.47;0.90;;;5.10;99.90;;;;;;5045327;28;20041;-65
2023/12/22 00:32:41;;;;;;;13.38;1.20;;;5.20;99.90;;;;;;5049420;28;20021;-66
2023/12/22 00:35:07;;;;;;;12.23;1.52;;;5.20;99.90;;;;;;5041254;28;20079;-66
2023/12/22 00:37:32;;;;;;;13.60;1.10;;;5.30;99.90;;;;;;5047651;28;20029;-66
2023/12/22 00:39:58;;;;;;;9.93;1.10;;;5.30;99.90;;;;;;5044801;28;20032;-65
2023/12/22 00:42:23;;;;;;;20.10;1.27;;;5.30;99.90;;;;;;5042169;28;20200;-66
2023/12/22 00:44:49;;;;;;;9.07;1.13;;;5.40;99.90;;;;;;5051790;28;20036;-66
2023/12/22 00:47:14;;;;;;;5.55;0.95;;;5.40;99.90;;;;;;5048241;28;20025;-66
2023/12/22 00:49:40;;;;;;;15.00;1.40;;;5.50;99.90;;;;;;5049264;28;20098;-66
2023/12/22 00:52:05;;;;;;;16.95;2.40;;;5.60;99.90;;;;;;5049078;28;20066;-67
2023/12/22 00:54:31;;;;;;;11.68;1.02;;;5.60;99.90;;;;;;5039697;28;20028;-66
2023/12/22 00:56:57;;;;;;;13.52;1.38;;;5.60;99.90;;;;;;5043342;28;20038;-65
2023/12/22 00:59:23;;;;;;;17.42;1.10;;;5.70;99.90;;;;;;5048771;28;20071;-67
2023/12/22 01:01:49;;;;;;;9.20;1.10;;;5.70;99.90;;;;;;5043941;28;20455;-66
2023/12/22 01:04:15;;;;;;;5.95;1.00;;;5.70;99.90;;;;;;5045832;28;20026;-67
2023/12/22 01:06:40;;;;;;;11.75;1.92;;;5.80;99.90;;;;;;5043610;28;20484;-66
2023/12/22 01:09:06;;;;;;;20.65;1.67;;;5.80;99.90;;;;;;5050362;28;20032;-66
2023/12/22 01:11:32;;;;;;;14.05;2.25;;;5.80;99.90;;;;;;5042819;28;20033;-66
2023/12/22 01:13:58;;;;;;;17.60;1.83;;;5.80;99.90;;;;;;5042012;28;20106;-65
2023/12/22 01:16:23;;;;;;;17.58;1.38;;;5.80;99.90;;;;;;5042361;28;20029;-66
2023/12/22 01:18:52;;;;;;;17.02;1.90;;;5.80;99.90;;;;;;5049268;28;20053;-66
2023/12/22 01:21:18;;;;;;;8.35;1.35;;;5.80;99.90;;;;;;5045721;28;20491;-66
2023/12/22 01:23:43;;;;;;;12.90;1.27;;;5.80;99.90;;;;;;5050286;28;20024;-66
2023/12/22 01:26:09;;;;;;;14.18;1.20;;;5.80;99.90;;;;;;5044247;28;20116;-66
2023/12/22 01:28:35;;;;;;;14.18;1.83;;;5.80;99.90;;;;;;5049435;28;20029;-66
2023/12/22 01:31:01;;;;;;;12.35;1.75;;;5.90;99.90;;;;;;5045129;28;20067;-65
2023/12/22 01:33:27;;;;;;;15.48;2.33;;;6.00;99.90;;;;;;5056463;28;20033;-65
2023/12/22 01:35:52;;;;;;;12.60;1.60;;;6.00;99.90;;;;;;5036707;28;20029;-67
2023/12/22 01:38:18;;;;;;;11.57;1.90;;;6.00;99.90;;;;;;5051642;28;20113;-66
2023/12/22 01:40:44;;;;;;;13.90;1.88;;;6.00;99.90;;;;;;5044348;28;20430;-66
2023/12/22 01:43:09;;;;;;;11.95;1.83;;;6.00;99.90;;;;;;5046870;28;20025;-66
2023/12/22 01:45:35;;;;;;;21.38;2.70;;;6.10;99.90;;;;;;5044528;28;20032;-66
2023/12/22 01:48:02;;;;;;;22.63;4.22;;;6.10;99.90;;;;;;5059090;28;20025;-67
2023/12/22 01:50:28;;;;;;;27.05;2.78;;;6.10;99.90;;;;;;5040311;28;20052;-65
2023/12/22 01:52:54;;;;;;;12.27;1.70;;;6.10;99.90;;;;;;5045926;28;20479;-66
2023/12/22 01:55:20;;;;;;;12.40;2.03;;;6.10;99.90;;;;;;5047740;28;20081;-66
2023/12/22 01:57:47;;;;;;;18.58;1.60;;;6.10;99.90;;;;;;5047760;28;20099;-66
2023/12/22 02:00:14;;;;;;;18.52;2.47;;;6.10;99.90;;;;;;5041214;28;20029;-66
2023/12/22 02:02:42;;;;;;;17.55;2.08;;;6.10;99.90;;;;;;5048608;28;20104;-66
2023/12/22 02:05:11;;;;;;;19.30;2.60;;;6.00;99.90;;;;;;5054720;28;20021;-66
2023/12/22 02:07:39;;;;;;;18.00;1.88;;;6.00;99.90;;;;;;5051525;28;20394;-66
2023/12/22 02:10:07;;;;;;;10.77;2.20;;;5.90;99.90;;;;;;5054903;28;20482;-64
2023/12/22 02:12:32;;;;;;;16.13;2.10;;;6.00;99.90;;;;;;5045322;28;20061;-66
2023/12/22 02:14:58;;;;;;;12.75;1.50;;;5.90;99.90;;;;;;5041994;28;20075;-66
2023/12/22 02:17:38;;;;;;;16.38;1.65;;;5.90;99.90;;;;;;5046118;28;20020;-66
2023/12/22 02:20:06;;;;;;;16.45;2.53;;;5.90;99.90;;;;;;5043642;28;20406;-66
2023/12/22 02:22:31;;;;;;;20.80;2.13;;;5.90;99.90;;;;;;5040036;28;20044;-67
2023/12/22 02:24:57;;;;;;;21.83;2.22;;;5.90;99.90;;;;;;5045865;28;20586;-66
2023/12/22 02:27:44;;;;;;;13.80;1.92;;;5.90;99.90;;;;;;5043603;28;20051;-66
2023/12/22 02:30:15;;;;;;;28.08;3.20;;;5.90;99.90;;;;;;5047260;28;20041;-67
2023/12/22 02:32:44;;;;;;;5.25;1.90;;;5.90;99.90;;;;;;5048689;28;20040;-66
2023/12/22 02:35:19;;;;;;;15.88;2.88;;;5.90;99.90;;;;;;5050630;28;20068;-66
2023/12/22 02:37:47;;;;;;;14.70;2.85;;;5.90;99.90;;;;;;5048539;28;20080;-66
2023/12/22 02:40:14;;;;;;;9.43;2.25;;;6.00;99.90;;;;;;5055430;28;20025;-66
2023/12/22 02:42:39;;;;;;;28.80;2.30;;;6.00;99.90;;;;;;5051367;28;20032;-66
2023/12/22 02:45:06;;;;;;;23.27;2.42;;;6.00;99.90;;;;;;5048470;28;20083;-66
2023/12/22 02:47:34;;;;;;;20.73;2.17;;;6.10;99.90;;;;;;5040769;28;20057;-67
2023/12/22 02:50:00;;;;;;;20.15;3.00;;;6.10;99.90;;;;;;5048084;28;20044;-66
2023/12/22 02:52:25;;;;;;;18.10;2.83;;;6.10;99.90;;;;;;5041649;28;20025;-66
2023/12/22 02:54:51;;;;;;;17.02;3.22;;;6.10;99.90;;;;;;5050794;28;20037;-66
2023/12/22 02:57:16;;;;;;;31.15;2.60;;;6.20;99.90;;;;;;5051944;28;20048;-66
2023/12/22 02:59:42;;;;;;;25.52;3.22;;;6.20;99.90;;;;;;5050084;28;20143;-66
2023/12/22 03:02:07;;;;;;;21.63;2.67;;;6.20;99.90;;;;;;5047395;28;20029;-65
2023/12/22 03:04:33;;;;;;;21.45;2.03;;;6.20;99.90;;;;;;5048033;28;20033;-66
2023/12/22 03:06:58;;;;;;;22.73;2.55;;;6.20;99.90;;;;;;5048926;28;20044;-66
2023/12/22 03:09:24;;;;;;;12.82;2.17;;;6.20;99.90;;;;;;5051828;28;20103;-66
2023/12/22 03:11:54;;;;;;;13.32;2.72;;;6.20;99.90;;;;;;5047352;28;20030;-66
2023/12/22 03:14:20;;;;;;;18.95;2.53;;;6.20;99.90;;;;;;5051477;28;20027;-66
2023/12/22 03:16:45;;;;;;;18.77;3.35;;;6.20;99.90;;;;;;5045812;28;20025;-67
2023/12/22 03:19:11;;;;;;;23.52;2.47;;;6.20;99.90;;;;;;5045914;28;20049;-66
2023/12/22 03:21:36;;;;;;;29.75;2.63;;;6.20;99.90;;;;;;5054838;28;20025;-66
2023/12/22 03:24:02;;;;;;;20.67;3.95;;;6.20;99.90;;;;;;5046240;28;20083;-67
2023/12/22 03:26:28;;;;;;;27.45;2.88;;;6.20;99.90;;;;;;5048305;28;20047;-66
2023/12/22 03:28:53;;;;;;;35.42;3.25;;;6.30;99.90;;;;;;5046079;28;20108;-66
2023/12/22 03:31:19;;;;;;;20.00;3.15;;;6.40;99.90;;;;;;5049692;28;20123;-64
2023/12/22 03:33:44;;;;;;;30.33;3.08;;;6.40;99.90;;;;;;5049414;28;20029;-65
2023/12/22 03:36:10;;;;;;;33.92;3.28;;;6.50;99.90;;;;;;5051423;28;20510;-65
2023/12/22 03:38:35;;;;;;;18.25;2.83;;;6.70;99.90;;;;;;5051342;28;20036;-65
2023/12/22 03:41:01;;;;;;;21.95;2.92;;;6.70;99.90;;;;;;5048527;28;20025;-65
2023/12/22 03:43:26;;;;;;;20.08;3.33;;;6.70;99.90;;;;;;5048322;28;20031;-65
2023/12/22 03:45:52;;;;;;;32.00;4.05;;;6.90;99.90;;;;;;5046805;28;20057;-64
2023/12/22 03:48:17;;;;;;;27.58;3.17;;;6.90;99.90;;;;;;5048894;28;20037;-66
2023/12/22 03:50:43;;;;;;;31.20;3.20;;;6.90;99.90;;;;;;5054413;28;20132;-66
2023/12/22 03:53:09;;;;;;;14.50;2.45;;;7.10;99.90;;;;;;5043677;28;20026;-65
2023/12/22 03:55:34;;;;;;;20.58;3.90;;;7.10;99.90;;;;;;5056067;28;20025;-65
2023/12/22 03:58:00;;;;;;;24.73;3.53;;;7.20;99.90;;;;;;5052102;28;20104;-66
2023/12/22 04:00:25;;;;;;;28.25;2.75;;;7.20;99.90;;;;;;5046190;28;20029;-65
2023/12/22 04:02:51;;;;;;;23.63;3.00;;;7.30;99.90;;;;;;5047846;28;20056;-65
2023/12/22 04:05:16;;;;;;;19.55;2.72;;;7.30;99.90;;;;;;5062495;28;20033;-65
2023/12/22 04:07:42;;;;;;;22.50;2.40;;;7.30;99.90;;;;;;5049425;28;20050;-64
2023/12/22 04:10:08;;;;;;;14.63;2.55;;;7.30;99.90;;;;;;5050856;28;20059;-63
2023/12/22 04:12:33;;;;;;;15.50;2.35;;;7.30;99.90;;;;;;5047680;28;20060;-65
2023/12/22 04:14:59;;;;;;;23.30;2.42;;;7.30;99.90;;;;;;5055869;28;20026;-65
2023/12/22 04:17:24;;;;;;;21.63;2.78;;;7.30;99.90;;;;;;5050603;28;20838;-65
2023/12/22 04:19:50;;;;;;;15.98;2.03;;;7.30;99.90;;;;;;5052932;28;20025;-65
2023/12/22 04:22:15;;;;;;;10.10;1.60;;;7.20;99.90;;;;;;5052385;28;20063;-63
2023/12/22 04:24:41;;;;;;;21.42;2.20;;;7.30;99.90;;;;;;5052085;28;20500;-65
2023/12/22 04:27:06;;;;;;;10.63;1.58;;;7.20;99.90;;;;;;5049253;28;20036;-65
2023/12/22 04:29:32;;;;;;;16.88;2.10;;;7.10;99.90;;;;;;5054419;28;20055;-65
2023/12/22 04:31:58;;;;;;;14.27;1.73;;;7.10;99.90;;;;;;5047097;28;20068;-65
2023/12/22 04:34:23;;;;;;;15.00;1.63;;;7.10;99.90;;;;;;5060498;28;20390;-65
2023/12/22 04:36:49;;;;;;;14.77;1.83;;;7.10;99.90;;;;;;5049344;28;20028;-65
2023/12/22 04:39:14;;;;;;;13.52;1.63;;;7.00;99.90;;;;;;5054007;28;20507;-65
2023/12/22 04:41:40;;;;;;;17.67;2.28;;;7.10;99.90;;;;;;5052892;28;20025;-65
2023/12/22 04:44:05;;;;;;;14.82;2.03;;;7.00;99.90;;;;;;5054308;28;20022;-65
2023/12/22 04:46:31;;;;;;;14.63;2.17;;;7.10;99.90;;;;;;5054633;28;20037;-65
2023/12/22 04:48:56;;;;;;;17.23;2.08;;;7.10;99.90;;;;;;5052062;28;20030;-65
2023/12/22 04:51:23;;;;;;;16.25;2.13;;;7.00;99.90;;;;;;5058698;28;20033;-66
2023/12/22 04:53:49;;;;;;;19.38;2.60;;;7.00;99.90;;;;;;5050873;28;20029;-65
2023/12/22 04:56:15;;;;;;;22.73;2.53;;;7.00;99.90;;;;;;5055588;28;20622;-65
2023/12/22 04:58:40;;;;;;;18.42;2.22;;;6.90;99.90;;;;;;5048592;28;20032;-65
2023/12/22 05:01:06;;;;;;;18.58;2.53;;;7.00;99.90;;;;;;5060848;28;20028;-65
2023/12/22 05:03:31;;;;;;;16.50;2.88;;;7.00;99.90;;;;;;5051929;28;20021;-65
2023/12/22 05:05:57;;;;;;;19.10;2.15;;;7.10;99.90;;;;;;5056650;28;20048;-65
2023/12/22 05:08:22;;;;;;;12.57;2.50;;;7.10;99.90;;;;;;5051234;28;20494;-65
2023/12/22 05:10:48;;;;;;;21.77;2.75;;;7.10;99.90;;;;;;5057003;28;20028;-65
2023/12/22 05:13:13;;;;;;;24.45;3.08;;;7.20;99.90;;;;;;5050200;28;20022;-65
2023/12/22 05:15:39;;;;;;;14.73;2.65;;;7.20;99.90;;;;;;5058488;28;20055;-65
2023/12/22 05:18:04;;;;;;;11.23;2.33;;;7.30;99.90;;;;;;5049947;28;20078;-65
2023/12/22 05:20:30;;;;;;;20.10;3.00;;;7.60;99.90;;;;;;5057452;28;20017;-65
2023/12/22 05:22:55;;;;;;;16.20;3.10;;;7.60;99.90;;;;;;5056496;28;20100;-65
2023/12/22 05:25:21;;;;;;;16.30;3.22;;;7.60;99.90;;;;;;5050680;28;20027;-64
2023/12/22 05:27:46;;;;;;;20.63;2.88;;;7.60;99.90;;;;;;5049338;28;20036;-65
2023/12/22 05:30:12;;;;;;;17.73;2.80;;;7.80;99.90;;;;;;5047274;28;20063;-65
2023/12/22 05:32:38;;;;;;;20.65;3.03;;;7.80;99.90;;;;;;5049747;28;20033;-65
2023/12/22 05:35:04;;;;;;;22.75;3.00;;;7.90;99.90;;;;;;5052568;28;20044;-65
2023/12/22 05:37:30;;;;;;;27.10;3.05;;;7.90;99.90;;;;;;5051380;28;20394;-65
2023/12/22 05:39:55;;;;;;;20.38;3.90;;;8.00;99.90;;;;;;5049201;28;20021;-65
2023/12/22 05:42:21;;;;;;;16.05;2.85;;;8.00;99.90;;;;;;5054389;28;20075;-65
2023/12/22 05:44:49;;;;;;;19.70;2.85;;;8.20;99.90;;;;;;5046685;28;20506;-65
2023/12/22 05:47:18;;;;;;;22.95;3.50;;;8.20;99.90;;;;;;5055184;28;20107;-66
2023/12/22 05:49:44;;;;;;;24.77;2.90;;;8.30;99.90;;;;;;5052128;28;20124;-65
2023/12/22 05:52:09;;;;;;;23.50;3.35;;;8.30;99.90;;;;;;5051821;28;20096;-65
2023/12/22 05:54:35;;;;;;;21.15;3.40;;;8.30;99.90;;;;;;5060711;28;20469;-66
2023/12/22 05:57:01;;;;;;;17.17;3.13;;;8.30;99.90;;;;;;5057879;28;20017;-65
2023/12/22 05:59:27;;;;;;;20.65;3.08;;;8.40;99.90;;;;;;5057782;28;20078;-65
2023/12/22 06:01:56;;;;;;;26.00;2.60;;;8.50;99.90;;;;;;5054884;28;20045;-66
2023/12/22 06:04:21;;;;;;;18.85;2.45;;;8.40;99.90;;;;;;5047651;28;20385;-65
2023/12/22 06:06:47;;;;;;;20.35;3.08;;;8.50;99.90;;;;;;5049741;28;20017;-66
2023/12/22 06:09:12;;;;;;;14.23;2.25;;;8.40;99.90;;;;;;5057495;28;20022;-66
2023/12/22 06:11:39;;;;;;;17.77;2.50;;;8.50;99.90;;;;;;5043322;28;20159;-65
2023/12/22 06:14:05;;;;;;;29.15;2.95;;;8.40;99.90;;;;;;5047516;28;20099;-66
2023/12/22 06:16:31;;;;;;;20.02;3.00;;;8.40;99.90;;;;;;5049258;28;20155;-66
2023/12/22 06:18:57;;;;;;;29.10;2.97;;;8.40;99.90;;;;;;5049046;28;20499;-67
2023/12/22 06:21:22;;;;;;;16.00;2.50;;;8.40;99.90;;;;;;5042092;28;20021;-66
2023/12/22 06:23:48;;;;;;;21.70;2.83;;;8.40;99.90;;;;;;5050768;28;20143;-66
2023/12/22 06:26:13;;;;;;;22.92;4.22;;;8.50;99.90;;;;;;5042744;28;20032;-63
2023/12/22 06:28:39;;;;;;;27.48;3.42;;;8.50;99.90;;;;;;5045338;28;20029;-66
2023/12/22 06:31:20;;;;;;;23.73;3.67;;;8.60;99.90;;;;;;5050181;28;20085;-66
2023/12/22 06:33:46;;;;;;;27.13;2.58;;;8.50;99.90;;;;;;5053283;28;20170;-66
2023/12/22 06:36:19;;;;;;;29.15;2.85;;;8.70;99.90;;;;;;5051206;28;20075;-67
2023/12/22 06:38:44;;;;;;;17.13;2.28;;;8.60;99.90;;;;;;5048709;28;20479;-67
2023/12/22 06:41:25;;;;;;;18.23;2.53;;;8.50;99.90;;;;;;5047288;28;20036;-67
2023/12/22 06:43:51;;;;;;;27.92;3.85;;;8.50;99.90;;;;;;5050189;28;20020;-67
2023/12/22 06:46:18;;;;;;;19.85;2.65;;;8.50;99.90;;;;;;5046470;28;20033;-67
2023/12/22 06:48:45;;;;;;;15.43;3.13;;;8.50;99.90;;;;;;5045798;28;20033;-67
2023/12/22 06:51:37;;;;;;;14.82;2.53;;;8.50;99.90;;;;;;5049798;28;20072;-67
2023/12/22 06:54:04;;;;;;;8.35;1.48;;;8.50;99.90;;;;;;5051596;28;20033;-67
2023/12/22 06:56:34;;;;;;;6.25;0.68;;;8.40;99.90;;;;;;5053054;28;20418;-66
2023/12/22 06:58:59;;;;;;;4.65;0.90;;;8.20;99.90;;;;;;5051630;28;20028;-67
2023/12/22 07:01:31;;;;;;;5.93;1.05;;;7.80;99.90;;;;;;5050156;28;20016;-67
2023/12/22 07:04:00;;;;;;;10.60;1.35;;;7.60;99.90;;;;;;5048099;28;20551;-67
2023/12/22 07:06:28;;;;;;;12.75;2.38;;;7.60;99.90;;;;;;5049997;28;20025;-68
2023/12/22 07:09:17;;;;;;;10.07;1.20;;;7.50;99.90;;;;;;5046347;28;20044;-67
2023/12/22 07:11:52;;;;;;;7.45;1.35;;;7.50;99.90;;;;;;5050739;28;20124;-67
2023/12/22 07:14:18;;;;;;;10.73;2.15;;;7.40;99.90;;;;;;5052977;28;20029;-67
2023/12/22 07:16:44;;;;;;;16.15;1.83;;;7.30;99.90;;;;;;5048036;28;20036;-67
2023/12/22 07:19:13;;;;;;;19.48;2.53;;;7.30;99.90;;;;;;5045025;28;20091;-67
2023/12/22 07:21:42;;;;;;;13.07;2.33;;;7.20;99.90;;;;;;5047582;28;20446;-67
2023/12/22 07:24:07;;;;;;;15.00;2.88;;;7.20;99.90;;;;;;5053769;28;20030;-67
2023/12/22 07:26:33;;;;;;;23.75;3.53;;;7.20;99.90;;;;;;5054385;28;20036;-65
2023/12/22 07:28:59;;;;;;;12.90;2.85;;;7.20;99.90;;;;;;5042766;28;20025;-66
2023/12/22 07:31:25;;;;;;;22.58;3.70;;;7.20;99.90;;;;;;5045461;28;20028;-65
2023/12/22 07:33:51;;;;;;;15.50;3.45;;;7.20;99.90;;;;;;5052890;28;20465;-67
2023/12/22 07:36:18;;;;;;;22.15;3.63;;;7.20;99.90;;;;;;5048423;28;20104;-67
2023/12/22 07:38:44;;;;;;;15.60;3.53;;;7.20;99.90;;;;;;5055677;28;20128;-68
2023/12/22 07:41:09;;;;;;;25.02;3.75;;;7.30;99.90;;;;;;5061384;28;20806;-67
2023/12/22 07:43:35;;;;;;;30.83;3.72;;;7.30;99.90;;;;;;5056750;28;20494;-67
2023/12/22 07:46:00;;;;;;;17.65;3.25;;;7.30;99.90;;;;;;5056755;28;20456;-67
2023/12/22 07:48:26;;;;;;;24.52;2.90;;;7.30;99.90;;;;;;5058457;28;20019;-67
2023/12/22 07:50:51;;;;;;;29.27;4.05;;;7.30;99.90;;;;;;5051412;28;20460;-67
2023/12/22 07:53:17;;;;;;;30.33;4.07;;;7.30;99.90;;;;;;5052437;28;20032;-67
2023/12/22 07:55:43;;;;;;;28.02;5.32;;;7.30;99.90;;;;;;5050604;28;20033;-67
2023/12/22 07:58:09;;;;;;;31.83;4.97;;;7.40;99.90;;;;;;5049836;28;20036;-67
2023/12/22 08:00:35;;;;;;;47.45;6.65;;;7.40;99.90;;;;;;5051800;28;20029;-66
2023/12/22 08:03:01;;;;;;;32.83;4.88;;;7.60;99.90;;;;;;5046625;28;20036;-66
2023/12/22 08:05:26;;;;;;;43.10;5.50;;;7.70;99.90;;;;;;5049885;28;20026;-67
2023/12/22 08:07:52;;;;;;;35.85;5.50;;;7.80;99.90;;;;;;5055615;28;20048;-67
2023/12/22 08:10:18;;;;;;;28.17;5.32;;;7.80;99.90;;;;;;5049013;28;20032;-66
2023/12/22 08:12:43;;;;;;;44.08;5.28;;;7.90;99.90;;;;;;5046056;28;20111;-66
2023/12/22 08:15:12;;;;;;;44.40;5.72;;;7.90;99.90;;;;;;5047145;28;20037;-66
2023/12/22 08:17:45;;;;;;;38.03;5.35;;;7.80;99.90;;;;;;5046039;28;20025;-67
2023/12/22 08:20:15;;;;;;;38.47;5.47;;;7.80;99.90;;;;;;5049514;28;20021;-67
2023/12/22 08:22:41;;;;;;;49.80;6.30;;;7.80;99.90;;;;;;5053397;28;20057;-67
2023/12/22 08:25:07;;;;;;;34.65;5.50;;;7.80;99.90;;;;;;5054086;28;20106;-67
2023/12/22 08:27:33;;;;;;;56.38;8.35;;;7.80;99.90;;;;;;5049245;28;20032;-67
2023/12/22 08:29:58;;;;;;;51.92;6.53;;;7.80;99.90;;;;;;5049373;28;20037;-67
2023/12/22 08:32:24;;;;;;;49.45;6.47;;;8.00;99.90;;;;;;5054379;28;20475;-67
2023/12/22 08:34:49;;;;;;;52.92;5.97;;;8.00;99.90;;;;;;5053896;28;20032;-67
2023/12/22 08:37:15;;;;;;;41.42;6.63;;;8.00;99.90;;;;;;5050648;28;21388;-66
2023/12/22 08:39:40;;;;;;;53.40;5.60;;;8.00;99.90;;;;;;5052646;28;20024;-67
2023/12/22 08:42:06;;;;;;;42.42;5.05;;;8.10;99.90;;;;;;5057081;28;20020;-67
2023/12/22 08:44:31;;;;;;;59.47;7.30;;;8.10;99.90;;;;;;5052563;28;20091;-67
2023/12/22 08:46:57;;;;;;;50.10;6.05;;;8.10;99.90;;;;;;5050353;28;20029;-66
2023/12/22 08:49:22;;;;;;;36.47;5.63;;;8.10;99.90;;;;;;5048661;28;20052;-67
2023/12/22 08:51:48;;;;;;;39.72;5.50;;;8.10;99.90;;;;;;5053312;28;20522;-66
2023/12/22 08:54:14;;;;;;;50.55;8.00;;;8.20;99.90;;;;;;5059906;28;20449;-67
2023/12/22 08:56:40;;;;;;;45.75;6.05;;;8.30;99.90;;;;;;5049631;28;20099;-67
2023/12/22 08:59:08;;;;;;;36.30;4.53;;;8.40;99.90;;;;;;5044803;28;20024;-67
2023/12/22 09:01:34;;;;;;;48.67;5.13;;;8.30;99.90;;;;;;5045549;28;20066;-66
2023/12/22 09:04:01;;;;;;;35.17;5.93;;;8.40;99.90;;;;;;5050326;28;20123;-66
2023/12/22 09:06:27;;;;;;;33.58;6.10;;;8.40;99.90;;;;;;5043445;28;20368;-67
2023/12/22 09:08:52;;;;;;;43.22;5.93;;;8.40;99.90;;;;;;5043903;28;20032;-67
2023/12/22 09:11:19;;;;;;;42.22;5.35;;;8.40;99.90;;;;;;5048770;28;20033;-67
2023/12/22 09:13:45;;;;;;;41.95;5.03;;;8.40;99.90;;;;;;5042132;28;20039;-66
2023/12/22 09:16:14;;;;;;;32.47;6.82;;;8.60;99.90;;;;;;5043212;28;20546;-66
2023/12/22 09:18:40;;;;;;;35.53;5.25;;;8.50;99.90;;;;;;5039916;28;20030;-66
2023/12/22 09:21:06;;;;;;;38.20;6.35;;;8.60;99.90;;;;;;5047069;28;20028;-66
2023/12/22 09:23:32;;;;;;;32.33;6.32;;;8.70;99.90;;;;;;5046548;28;20025;-67
2023/12/22 09:25:58;;;;;;;36.85;4.95;;;8.70;99.90;;;;;;5049641;28;20102;-67
2023/12/22 09:28:23;;;;;;;37.63;6.18;;;8.70;99.90;;;;;;5050016;28;20124;-67
2023/12/22 09:30:49;;;;;;;38.47;5.53;;;8.70;99.90;;;;;;5044650;28;20026;-66
2023/12/22 09:33:15;;;;;;;23.77;5.03;;;8.60;99.90;;;;;;5044356;28;20082;-66
2023/12/22 09:35:41;;;;;;;34.38;4.75;;;9.00;99.90;;;;;;5043845;28;20116;-66
2023/12/22 09:38:09;;;;;;;33.78;5.55;;;9.00;99.90;;;;;;5041938;28;20394;-67
2023/12/22 09:40:36;;;;;;;31.75;4.88;;;8.90;99.90;;;;;;5039678;28;20507;-66
2023/12/22 09:43:02;;;;;;;33.30;4.78;;;8.90;99.90;;;;;;5045273;28;20034;-65
2023/12/22 09:45:30;;;;;;;37.50;6.07;;;9.00;99.90;;;;;;5044665;28;20040;-66
2023/12/22 09:47:58;;;;;;;27.15;5.05;;;9.00;99.90;;;;;;5044782;28;20021;-65
2023/12/22 09:50:24;;;;;;;29.38;4.85;;;9.00;99.90;;;;;;5043283;28;20476;-67
2023/12/22 09:52:50;;;;;;;20.63;3.53;;;9.10;99.90;;;;;;5043592;28;20048;-66
2023/12/22 09:55:17;;;;;;;23.02;3.78;;;9.20;99.90;;;;;;5045404;28;20044;-67
2023/12/22 09:57:44;;;;;;;22.27;4.53;;;9.20;99.90;;;;;;5047275;28;20051;-65
2023/12/22 10:00:12;;;;;;;27.38;3.70;;;9.20;99.90;;;;;;5043051;28;20105;-66
2023/12/22 10:02:39;;;;;;;20.42;3.17;;;9.30;99.90;;;;;;5049851;28;20025;-67
2023/12/22 10:05:05;;;;;;;19.20;3.67;;;9.30;99.90;;;;;;5054570;28;20029;-67
2023/12/22 10:07:33;;;;;;;15.15;3.30;;;9.30;99.90;;;;;;5053296;28;20055;-67
2023/12/22 10:10:00;;;;;;;21.27;3.80;;;9.30;99.90;;;;;;5043002;28;20398;-66
2023/12/22 10:12:29;;;;;;;20.85;2.30;;;9.30;99.90;;;;;;5046878;28;20033;-66
2023/12/22 10:14:55;;;;;;;13.73;2.47;;;9.30;99.90;;;;;;5042683;28;20017;-66
2023/12/22 10:17:20;;;;;;;20.23;2.45;;;9.30;99.90;;;;;;5048072;28;20456;-67
2023/12/22 10:19:46;;;;;;;16.70;3.03;;;9.30;99.90;;;;;;5049774;28;20099;-65
2023/12/22 10:22:12;;;;;;;11.38;2.22;;;9.30;99.90;;;;;;5048623;28;20400;-66
2023/12/22 10:24:46;;;;;;;9.30;1.75;;;9.40;99.90;;;;;;5042458;28;20056;-66
2023/12/22 10:27:13;;;;;;;6.40;1.98;;;9.40;99.90;;;;;;5041994;28;20036;-66
2023/12/22 10:29:39;;;;;;;10.75;2.25;;;9.30;99.90;;;;;;5044031;28;20102;-66
2023/12/22 10:32:06;;;;;;;7.85;1.55;;;9.20;99.90;;;;;;5046259;28;20028;-67
2023/12/22 10:34:32;;;;;;;15.60;2.05;;;9.20;99.90;;;;;;5044567;28;20479;-67
2023/12/22 10:36:59;;;;;;;11.02;2.45;;;9.10;99.90;;;;;;5043151;28;20212;-66
2023/12/22 10:39:32;;;;;;;15.88;2.40;;;9.10;99.90;;;;;;5042734;28;20025;-66
2023/12/22 10:41:58;;;;;;;8.73;2.08;;;9.10;99.90;;;;;;5041504;28;20025;-67
2023/12/22 10:44:25;;;;;;;14.52;3.28;;;9.10;99.90;;;;;;5041286;28;20033;-66
2023/12/22 10:46:51;;;;;;;5.88;2.58;;;9.10;99.90;;;;;;5029038;28;20032;-66
2023/12/22 10:49:16;;;;;;;6.95;2.30;;;9.10;99.90;;;;;;5040512;28;20090;-67
2023/12/22 10:51:42;;;;;;;9.23;2.75;;;9.20;99.90;;;;;;5041384;28;20120;-66
2023/12/22 10:54:08;;;;;;;12.13;3.55;;;9.10;99.90;;;;;;5040789;28;20454;-65
2023/12/22 10:56:34;;;;;;;11.20;3.90;;;9.10;99.90;;;;;;5041758;28;20041;-66
2023/12/22 10:59:01;;;;;;;8.35;3.05;;;9.10;99.90;;;;;;5041773;28;20037;-66
2023/12/22 11:01:33;;;;;;;15.88;5.15;;;9.10;99.90;;;;;;5034218;28;20729;-66
2023/12/22 11:04:04;;;;;;;9.88;3.45;;;9.10;99.90;;;;;;5036141;28;20061;-65
2023/12/22 11:06:33;;;;;;;7.85;2.30;;;9.00;99.90;;;;;;5042110;28;20502;-65
2023/12/22 11:09:01;;;;;;;11.05;2.75;;;9.10;99.90;;;;;;5042971;28;20039;-66
2023/12/22 11:11:37;;;;;;;14.43;2.83;;;9.10;99.90;;;;;;5041389;28;20402;-66
2023/12/22 11:14:04;;;;;;;9.05;2.20;;;9.20;99.90;;;;;;5043934;28;20024;-66
2023/12/22 11:16:33;;;;;;;8.57;2.25;;;9.20;99.90;;;;;;5038490;28;20047;-66
2023/12/22 11:18:59;;;;;;;10.23;2.20;;;9.30;99.90;;;;;;5048314;28;20025;-66
2023/12/22 11:21:25;;;;;;;6.97;2.22;;;9.30;99.90;;;;;;5042597;28;20028;-65
2023/12/22 11:23:52;;;;;;;9.73;2.10;;;9.40;99.90;;;;;;5046095;28;20033;-66
2023/12/22 11:26:19;;;;;;;9.70;1.75;;;9.40;99.90;;;;;;5049658;28;20501;-66
2023/12/22 11:28:49;;;;;;;5.90;1.98;;;9.40;99.90;;;;;;5045839;28;20037;-65
2023/12/22 11:31:15;;;;;;;10.85;2.00;;;9.50;99.90;;;;;;5042127;28;20025;-66
2023/12/22 11:33:49;;;;;;;8.75;2.72;;;9.50;99.90;;;;;;5044404;28;20495;-66
2023/12/22 11:36:16;;;;;;;6.25;2.28;;;9.50;99.90;;;;;;5046579;28;20056;-66
2023/12/22 11:38:43;;;;;;;4.97;2.08;;;9.50;99.90;;;;;;5046164;28;20553;-67
2023/12/22 11:41:12;;;;;;;8.20;2.67;;;9.50;99.90;;;;;;5047689;28;20025;-67
2023/12/22 11:43:39;;;;;;;5.75;2.03;;;9.60;99.90;;;;;;5048843;28;20052;-66
2023/12/22 11:46:05;;;;;;;6.20;2.33;;;9.60;99.90;;;;;;5048272;28;20135;-64
2023/12/22 11:48:31;;;;;;;6.25;2.28;;;9.70;99.90;;;;;;5032986;28;20055;-66
2023/12/22 11:50:57;;;;;;;8.48;2.30;;;9.70;99.90;;;;;;5050846;28;20039;-66
2023/12/22 11:53:24;;;;;;;4.60;2.72;;;9.80;99.90;;;;;;5046828;28;20389;-67
2023/12/22 11:55:59;;;;;;;12.23;2.42;;;9.80;99.90;;;;;;5044532;28;20015;-68
2023/12/22 11:58:41;;;;;;;;;;;9.80;99.90;;;;;;5064299;28;20078;-67
2023/12/22 12:01:11;;;;;;;7.32;1.50;;;9.90;99.90;;;;;;5051962;28;19909;-67
2023/12/22 12:03:41;;;;;;;6.28;2.08;;;10.00;99.90;;;;;;5038756;28;20022;-67
2023/12/22 12:06:30;;;;;;;5.63;1.73;;;10.00;99.90;;;;;;5051650;28;20052;-66
2023/12/22 12:09:05;;;;;;;10.25;1.90;;;10.10;99.90;;;;;;5044516;28;20017;-67
2023/12/22 12:11:52;;;;;;;5.78;1.70;;;10.10;99.90;;;;;;5047518;28;20394;-66
2023/12/22 12:14:22;;;;;;;5.82;1.70;;;10.20;99.90;;;;;;5044360;28;20391;-66
2023/12/22 12:16:48;;;;;;;5.30;1.35;;;10.20;99.90;;;;;;5051807;28;20033;-66
2023/12/22 12:19:14;;;;;;;8.90;1.60;;;10.20;99.90;;;;;;5038346;28;20067;-66
2023/12/22 12:21:40;;;;;;;3.78;1.38;;;10.30;99.90;;;;;;5049274;28;20026;-65
2023/12/22 12:24:06;;;;;;;9.52;1.63;;;10.30;99.90;;;;;;5045838;28;20594;-67
2023/12/22 12:26:33;;;;;;;1.88;1.48;;;10.30;99.90;;;;;;5051250;28;20110;-67
2023/12/22 12:28:59;;;;;;;5.47;1.55;;;10.30;99.90;;;;;;5045225;28;20037;-66
2023/12/22 12:31:41;;;;;;;11.73;1.70;;;10.30;99.90;;;;;;5047012;28;20032;-67
2023/12/22 12:34:10;;;;;;;5.53;1.52;;;10.40;99.90;;;;;;5036949;28;20028;-66
2023/12/22 12:36:36;;;;;;;8.15;2.13;;;10.40;99.90;;;;;;5041424;28;20094;-66
2023/12/22 12:39:10;;;;;;;6.40;1.35;;;10.40;99.90;;;;;;5055403;28;20026;-66
2023/12/22 12:41:40;;;;;;;7.65;1.60;;;10.40;99.90;;;;;;5044634;28;20533;-66
2023/12/22 12:44:07;;;;;;;9.00;1.80;;;10.40;99.90;;;;;;5039739;28;20029;-66
2023/12/22 12:46:34;;;;;;;4.95;1.58;;;10.40;99.90;;;;;;5042297;28;20167;-66